sensor_id;sensor_type;location;lat;lon;timestamp;temperature;humidity
57466;DHT22;67033;44.984;20.068;2023-03-03T00:47:30;7.70;99.90
57466;DHT22;67033;44.984;20.068;2023-03-03T00:52:40;7.70;99.90
57466;DHT22;67033;44.984;20.068;2023-03-03T00:55:10;7.70;99.90
57466;DHT22;67033;44.984;20.068;2023-03-03T00:57:36;7.70;99.90
57466;DHT22;67033;44.984;20.068;2023-03-03T01:00:03;7.70;99.90
57466;DHT22;67033;44.984;20.068;2023-03-03T01:02:29;7.70;99.90
57466;DHT22;67033;44.984;20.068;2023-03-03T01:04:56;7.60;99.90
57466;DHT22;67033;44.984;20.068;2023-03-03T01:07:22;7.60;99.90
57466;DHT22;67033;44.984;20.068;2023-03-03T01:09:48;7.60;99.90
57466;DHT22;67033;44.984;20.068;2023-03-03T01:12:14;7.60;99.90
57466;DHT22;67033;44.984;20.068;2023-03-03T01:14:41;7.50;99.90
57466;DHT22;67033;44.984;20.068;2023-03-03T01:17:07;7.60;99.90
57466;DHT22;67033;44.984;20.068;2023-03-03T01:19:34;7.60;99.90
57466;DHT22;67033;44.984;20.068;2023-03-03T01:22:00;7.60;99.90
57466;DHT22;67033;44.984;20.068;2023-03-03T01:24:26;7.70;99.90
57466;DHT22;67033;44.984;20.068;2023-03-03T02:17:43;7.40;99.90
57466;DHT22;67033;44.984;20.068;2023-03-03T02:21:02;7.50;99.90
57466;DHT22;67033;44.984;20.068;2023-03-03T02:28:30;7.40;99.90
57466;DHT22;67033;44.984;20.068;2023-03-03T02:30:58;7.40;99.90
57466;DHT22;67033;44.984;20.068;2023-03-03T02:33:25;7.30;99.90
57466;DHT22;67033;44.984;20.068;2023-03-03T02:35:51;7.30;99.90
57466;DHT22;67033;44.984;20.068;2023-03-03T02:41:25;7.20;99.90
57466;DHT22;67033;44.984;20.068;2023-03-03T02:48:59;7.20;99.90
57466;DHT22;67033;44.984;20.068;2023-03-03T02:51:25;7.10;99.90
57466;DHT22;67033;44.984;20.068;2023-03-03T02:53:51;7.10;99.90
57466;DHT22;67033;44.984;20.068;2023-03-03T02:56:17;7.10;99.90
57466;DHT22;67033;44.984;20.068;2023-03-03T02:58:43;7.20;99.90
57466;DHT22;67033;44.984;20.068;2023-03-03T03:01:08;7.20;99.90
57466;DHT22;67033;44.984;20.068;2023-03-03T03:03:34;7.10;99.90
57466;DHT22;67033;44.984;20.068;2023-03-03T03:06:00;7.10;99.90
57466;DHT22;67033;44.984;20.068;2023-03-03T03:08:26;7.10;99.90
57466;DHT22;67033;44.984;20.068;2023-03-03T03:10:53;7.10;99.90
57466;DHT22;67033;44.984;20.068;2023-03-03T03:13:19;7.10;99.90
57466;DHT22;67033;44.984;20.068;2023-03-03T03:15:45;7.10;99.90
57466;DHT22;67033;44.984;20.068;2023-03-03T03:18:12;7.00;99.90
57466;DHT22;67033;44.984;20.068;2023-03-03T03:23:07;7.00;99.90
57466;DHT22;67033;44.984;20.068;2023-03-03T03:25:33;7.10;99.90
57466;DHT22;67033;44.984;20.068;2023-03-03T03:27:59;7.10;99.90
57466;DHT22;67033;44.984;20.068;2023-03-03T03:30:25;7.20;99.90
57466;DHT22;67033;44.984;20.068;2023-03-03T03:32:51;7.10;99.90
57466;DHT22;67033;44.984;20.068;2023-03-03T03:35:17;7.20;99.90
57466;DHT22;67033;44.984;20.068;2023-03-03T03:37:43;7.20;99.90
57466;DHT22;67033;44.984;20.068;2023-03-03T03:40:09;7.10;99.90
57466;DHT22;67033;44.984;20.068;2023-03-03T03:42:36;7.20;99.90
57466;DHT22;67033;44.984;20.068;2023-03-03T03:45:03;7.20;99.90
57466;DHT22;67033;44.984;20.068;2023-03-03T03:47:29;7.20;99.90
57466;DHT22;67033;44.984;20.068;2023-03-03T03:49:55;7.30;99.90
57466;DHT22;67033;44.984;20.068;2023-03-03T03:52:21;7.30;99.90
57466;DHT22;67033;44.984;20.068;2023-03-03T03:54:47;7.20;99.90
57466;DHT22;67033;44.984;20.068;2023-03-03T03:57:13;7.20;99.90
57466;DHT22;67033;44.984;20.068;2023-03-03T03:59:39;7.30;99.90
57466;DHT22;67033;44.984;20.068;2023-03-03T04:02:05;7.20;99.90
57466;DHT22;67033;44.984;20.068;2023-03-03T04:04:31;7.30;99.90
57466;DHT22;67033;44.984;20.068;2023-03-03T04:06:57;7.20;99.90
57466;DHT22;67033;44.984;20.068;2023-03-03T04:09:24;7.10;99.90
57466;DHT22;67033;44.984;20.068;2023-03-03T04:11:50;7.10;99.90
57466;DHT22;67033;44.984;20.068;2023-03-03T04:14:15;7.00;99.90
57466;DHT22;67033;44.984;20.068;2023-03-03T04:16:41;7.00;99.90
57466;DHT22;67033;44.984;20.068;2023-03-03T04:19:07;6.30;99.90
57466;DHT22;67033;44.984;20.068;2023-03-03T04:21:33;7.00;99.90
57466;DHT22;67033;44.984;20.068;2023-03-03T04:23:59;7.00;99.90
57466;DHT22;67033;44.984;20.068;2023-03-03T04:26:25;7.00;99.90
57466;DHT22;67033;44.984;20.068;2023-03-03T04:28:51;7.00;99.90
57466;DHT22;67033;44.984;20.068;2023-03-03T04:31:17;7.00;99.90
57466;DHT22;67033;44.984;20.068;2023-03-03T04:33:45;7.10;99.90
57466;DHT22;67033;44.984;20.068;2023-03-03T04:36:10;6.90;99.90
57466;DHT22;67033;44.984;20.068;2023-03-03T04:38:36;6.90;99.90
57466;DHT22;67033;44.984;20.068;2023-03-03T04:41:02;6.70;99.90
57466;DHT22;67033;44.984;20.068;2023-03-03T04:43:28;6.70;99.90
57466;DHT22;67033;44.984;20.068;2023-03-03T04:45:54;6.70;99.90
57466;DHT22;67033;44.984;20.068;2023-03-03T04:48:20;6.60;99.90
57466;DHT22;67033;44.984;20.068;2023-03-03T04:50:46;6.70;99.90
57466;DHT22;67033;44.984;20.068;2023-03-03T04:53:12;6.80;99.90
57466;DHT22;67033;44.984;20.068;2023-03-03T04:55:38;6.90;99.90
57466;DHT22;67033;44.984;20.068;2023-03-03T04:58:04;6.90;99.90
57466;DHT22;67033;44.984;20.068;2023-03-03T05:00:30;6.90;99.90
57466;DHT22;67033;44.984;20.068;2023-03-03T05:02:56;6.90;99.90
57466;DHT22;67033;44.984;20.068;2023-03-03T05:05:22;6.90;99.90
57466;DHT22;67033;44.984;20.068;2023-03-03T05:07:48;6.80;99.90
57466;DHT22;67033;44.984;20.068;2023-03-03T05:10:14;6.80;99.90
57466;DHT22;67033;44.984;20.068;2023-03-03T05:12:40;6.70;99.90
57466;DHT22;67033;44.984;20.068;2023-03-03T05:15:06;6.70;99.90
57466;DHT22;67033;44.984;20.068;2023-03-03T05:17:32;6.80;99.90
57466;DHT22;67033;44.984;20.068;2023-03-03T05:19:58;6.80;99.90
57466;DHT22;67033;44.984;20.068;2023-03-03T05:22:24;6.80;99.90
57466;DHT22;67033;44.984;20.068;2023-03-03T05:24:50;6.80;99.90
57466;DHT22;67033;44.984;20.068;2023-03-03T05:27:16;6.80;99.90
57466;DHT22;67033;44.984;20.068;2023-03-03T05:29:42;6.80;99.90
57466;DHT22;67033;44.984;20.068;2023-03-03T05:32:08;6.80;99.90
57466;DHT22;67033;44.984;20.068;2023-03-03T05:34:34;6.80;99.90
57466;DHT22;67033;44.984;20.068;2023-03-03T05:36:59;6.70;99.90
57466;DHT22;67033;44.984;20.068;2023-03-03T05:39:25;6.70;99.90
57466;DHT22;67033;44.984;20.068;2023-03-03T05:41:51;6.80;99.90
57466;DHT22;67033;44.984;20.068;2023-03-03T05:44:17;6.80;99.90
57466;DHT22;67033;44.984;20.068;2023-03-03T05:46:44;6.80;99.90
57466;DHT22;67033;44.984;20.068;2023-03-03T05:49:10;6.90;99.90
57466;DHT22;67033;44.984;20.068;2023-03-03T05:51:36;7.00;99.90
57466;DHT22;67033;44.984;20.068;2023-03-03T05:54:02;7.00;99.90
57466;DHT22;67033;44.984;20.068;2023-03-03T05:56:27;6.90;99.90
57466;DHT22;67033;44.984;20.068;2023-03-03T05:58:53;6.90;99.90
57466;DHT22;67033;44.984;20.068;2023-03-03T06:01:20;6.80;99.90
57466;DHT22;67033;44.984;20.068;2023-03-03T06:03:46;6.90;99.90
57466;DHT22;67033;44.984;20.068;2023-03-03T06:06:12;6.90;99.90
57466;DHT22;67033;44.984;20.068;2023-03-03T06:08:38;6.90;99.90
57466;DHT22;67033;44.984;20.068;2023-03-03T06:11:04;6.90;99.90
57466;DHT22;67033;44.984;20.068;2023-03-03T06:13:30;7.00;99.90
57466;DHT22;67033;44.984;20.068;2023-03-03T06:15:56;7.00;99.90
57466;DHT22;67033;44.984;20.068;2023-03-03T06:18:22;7.00;99.90
57466;DHT22;67033;44.984;20.068;2023-03-03T06:20:52;7.00;99.90
57466;DHT22;67033;44.984;20.068;2023-03-03T06:23:18;7.00;99.90
57466;DHT22;67033;44.984;20.068;2023-03-03T06:25:44;7.00;99.90
57466;DHT22;67033;44.984;20.068;2023-03-03T06:28:10;7.00;99.90
57466;DHT22;67033;44.984;20.068;2023-03-03T06:30:37;7.00;99.90
57466;DHT22;67033;44.984;20.068;2023-03-03T06:33:03;7.10;99.90
57466;DHT22;67033;44.984;20.068;2023-03-03T06:35:29;7.30;99.90
57466;DHT22;67033;44.984;20.068;2023-03-03T06:40:21;7.40;99.90
57466;DHT22;67033;44.984;20.068;2023-03-03T06:42:49;7.40;99.90
57466;DHT22;67033;44.984;20.068;2023-03-03T07:50:30;8.70;99.90
57466;DHT22;67033;44.984;20.068;2023-03-03T07:53:01;8.80;99.90
57466;DHT22;67033;44.984;20.068;2023-03-03T08:03:16;9.10;99.90
57466;DHT22;67033;44.984;20.068;2023-03-03T08:05:46;9.00;99.90
57466;DHT22;67033;44.984;20.068;2023-03-03T08:08:21;9.10;99.90
57466;DHT22;67033;44.984;20.068;2023-03-03T08:10:54;9.10;99.90
57466;DHT22;67033;44.984;20.068;2023-03-03T08:13:23;9.20;99.90
57466;DHT22;67033;44.984;20.068;2023-03-03T08:15:52;9.20;99.90
57466;DHT22;67033;44.984;20.068;2023-03-03T08:18:49;9.20;99.90
57466;DHT22;67033;44.984;20.068;2023-03-03T08:21:21;9.10;99.90
57466;DHT22;67033;44.984;20.068;2023-03-03T08:23:48;9.00;99.90
57466;DHT22;67033;44.984;20.068;2023-03-03T08:26:20;8.90;99.90
57466;DHT22;67033;44.984;20.068;2023-03-03T08:28:46;9.00;99.90
57466;DHT22;67033;44.984;20.068;2023-03-03T08:31:13;9.20;99.90
57466;DHT22;67033;44.984;20.068;2023-03-03T08:33:39;9.40;99.90
57466;DHT22;67033;44.984;20.068;2023-03-03T08:36:06;9.30;99.90
57466;DHT22;67033;44.984;20.068;2023-03-03T08:38:32;9.20;99.90
57466;DHT22;67033;44.984;20.068;2023-03-03T08:40:58;9.10;99.90
57466;DHT22;67033;44.984;20.068;2023-03-03T08:43:25;9.00;99.90
57466;DHT22;67033;44.984;20.068;2023-03-03T08:45:52;9.20;99.90
57466;DHT22;67033;44.984;20.068;2023-03-03T08:48:19;9.30;99.90
57466;DHT22;67033;44.984;20.068;2023-03-03T08:50:45;9.40;99.90
57466;DHT22;67033;44.984;20.068;2023-03-03T08:53:12;9.30;99.90
57466;DHT22;67033;44.984;20.068;2023-03-03T08:55:39;9.20;99.90
57466;DHT22;67033;44.984;20.068;2023-03-03T08:58:05;9.30;99.90
